Aeroporto :
LOGIN :

Iscrizione | Disclaimer

   EN    FR    IT 

 










Sommario :    VFR   VFR Marginale   IFR   IFR Intensivo   IFR Molto Intensivo
Visibilità : 
Base nubi : 
>= 8 km
>= 3000ft
5 / 8 km
1000 / 3000 ft
1500m / 5 km
500 / 1000 ft
800 / 1500m
200 / 500 ft
< 800m
< 200 ft
Simboli :   Temporali  Nebbia  Neve Forte  Precipitazioni Forti  Vento > 20 kt
SIGMETs :   Varie  Temporali  Ghiacco  Turbolenza  Onda orograficha  Ceneri Vulcaniche






- Altitudine del aeroporto : 598 ft
- Codice IATA : BQH


EGKB - Biggin Hill

ULTIMO METAR :
  • 271420Z 19020KT 1800 -RADZ BR BKN004 11/11 Q0994 RERADZ

METARs OBSOLETI :
  • 271350Z 18019KT 2000 RADZ BR BKN005 11/11 Q0994
  • 271320Z 18019KT 2000 RADZ BR BKN005 11/10 Q0995
  • 271250Z 18023KT 2000 -RADZ BR BKN005 10/10 Q0995
  • 271220Z 18019G29KT 2000 -RADZ BR BKN005 10/10 Q0996
  • 271150Z 18019KT 2500 -RADZ BR BKN005 10/10 Q0997

TAF TAF EGKB
Valido dal 27 a 12 ore il 27 a 21 ore UTC


271103Z 2712/2721 19010KT 9999 BKN008
TEMPO 2712/2714 4000 RA BKN004
PROB30
TEMPO 2712/2715 20015G28KT
BECMG 2714/2716 24008KT SCT025
PROB30
TEMPO 2716/2721 7000 SHRA



MetMap, La meteo Aeronautica in un colpo d'occhio ! - Copyright ORBIFLY Dicembre 2007 - Disclaimer

ORBIFLY MET'MAP TEAM :

Programmazione e sviluppo : Alexandra Zaïnal
Concezione : Baudouin d'Aumeries
Aiuto per la programmazione : Marc-Olivier Méhu
Supporto tecnico e logistico : Manuel Goepfert
Aiuto per la traduzione : Arnaldo La Scala

Contatto : metmap@orbifly.com




FONTI E CREDITI :

   NOAA